sensor_id;sensor_type;location;lat;lon;timestamp;temperature;humidity
72126;SHT31;59999;51.676;22.650;2023-03-01T00:01:02;-3.05;80.60
72126;SHT31;59999;51.676;22.650;2023-03-01T00:03:28;-3.01;80.63
72126;SHT31;59999;51.676;22.650;2023-03-01T00:05:54;-2.98;80.41
72126;SHT31;59999;51.676;22.650;2023-03-01T00:08:20;-2.99;80.34
72126;SHT31;59999;51.676;22.650;2023-03-01T00:10:46;-3.02;80.54
72126;SHT31;59999;51.676;22.650;2023-03-01T00:13:12;-3.03;80.51
72126;SHT31;59999;51.676;22.650;2023-03-01T00:15:39;-3.01;80.52
72126;SHT31;59999;51.676;22.650;2023-03-01T00:18:07;-2.98;80.47
72126;SHT31;59999;51.676;22.650;2023-03-01T00:20:34;-3.03;80.12
72126;SHT31;59999;51.676;22.650;2023-03-01T00:23:00;-3.01;80.27
72126;SHT31;59999;51.676;22.650;2023-03-01T00:25:26;-2.95;80.22
72126;SHT31;59999;51.676;22.650;2023-03-01T00:27:52;-2.98;80.10
72126;SHT31;59999;51.676;22.650;2023-03-01T00:30:18;-2.98;80.31
72126;SHT31;59999;51.676;22.650;2023-03-01T00:32:44;-2.96;80.08
72126;SHT31;59999;51.676;22.650;2023-03-01T00:35:10;-2.96;80.26
72126;SHT31;59999;51.676;22.650;2023-03-01T00:37:36;-2.98;80.15
72126;SHT31;59999;51.676;22.650;2023-03-01T00:40:02;-2.99;80.27
72126;SHT31;59999;51.676;22.650;2023-03-01T00:42:31;-2.98;80.21
72126;SHT31;59999;51.676;22.650;2023-03-01T00:44:57;-2.98;80.07
72126;SHT31;59999;51.676;22.650;2023-03-01T00:47:23;-3.02;80.19
72126;SHT31;59999;51.676;22.650;2023-03-01T00:49:49;-3.01;80.15
72126;SHT31;59999;51.676;22.650;2023-03-01T00:52:15;-3.02;80.19
72126;SHT31;59999;51.676;22.650;2023-03-01T00:54:41;-3.02;80.24
72126;SHT31;59999;51.676;22.650;2023-03-01T00:57:07;-3.05;80.29
72126;SHT31;59999;51.676;22.650;2023-03-01T00:59:33;-3.05;80.39
72126;SHT31;59999;51.676;22.650;2023-03-01T01:01:58;-3.06;80.52
72126;SHT31;59999;51.676;22.650;2023-03-01T01:04:24;-3.08;80.49
72126;SHT31;59999;51.676;22.650;2023-03-01T01:06:50;-3.06;80.61
72126;SHT31;59999;51.676;22.650;2023-03-01T01:09:17;-3.09;80.49
72126;SHT31;59999;51.676;22.650;2023-03-01T01:11:49;-3.11;80.40
72126;SHT31;59999;51.676;22.650;2023-03-01T01:14:16;-3.12;80.45
72126;SHT31;59999;51.676;22.650;2023-03-01T01:16:42;-3.12;80.50
72126;SHT31;59999;51.676;22.650;2023-03-01T01:19:10;-3.13;80.51
72126;SHT31;59999;51.676;22.650;2023-03-01T01:21:36;-3.09;80.47
72126;SHT31;59999;51.676;22.650;2023-03-01T01:24:04;-3.12;80.32
72126;SHT31;59999;51.676;22.650;2023-03-01T01:26:31;-3.15;80.56
72126;SHT31;59999;51.676;22.650;2023-03-01T01:28:59;-3.16;80.65
72126;SHT31;59999;51.676;22.650;2023-03-01T01:31:26;-3.20;80.83
72126;SHT31;59999;51.676;22.650;2023-03-01T01:33:54;-3.20;81.01
72126;SHT31;59999;51.676;22.650;2023-03-01T01:36:20;-3.22;81.08
72126;SHT31;59999;51.676;22.650;2023-03-01T01:38:46;-3.23;81.20
72126;SHT31;59999;51.676;22.650;2023-03-01T01:41:13;-3.26;81.10
72126;SHT31;59999;51.676;22.650;2023-03-01T01:43:45;-3.28;81.22
72126;SHT31;59999;51.676;22.650;2023-03-01T01:49:00;-3.29;81.30
72126;SHT31;59999;51.676;22.650;2023-03-01T01:51:29;-3.32;81.35
72126;SHT31;59999;51.676;22.650;2023-03-01T01:54:29;-3.30;81.26
72126;SHT31;59999;51.676;22.650;2023-03-01T01:57:00;-3.36;81.25
72126;SHT31;59999;51.676;22.650;2023-03-01T01:59:28;-2.72;80.49
72126;SHT31;59999;51.676;22.650;2023-03-01T02:01:58;-2.44;78.10
72126;SHT31;59999;51.676;22.650;2023-03-01T02:04:25;-2.40;77.75
72126;SHT31;59999;51.676;22.650;2023-03-01T02:07:06;-2.43;77.93
72126;SHT31;59999;51.676;22.650;2023-03-01T02:09:33;-2.54;78.11
72126;SHT31;59999;51.676;22.650;2023-03-01T02:11:59;-2.61;78.23
72126;SHT31;59999;51.676;22.650;2023-03-01T02:14:26;-2.68;78.62
72126;SHT31;59999;51.676;22.650;2023-03-01T02:16:52;-2.71;78.77
72126;SHT31;59999;51.676;22.650;2023-03-01T02:19:43;-2.75;78.94
72126;SHT31;59999;51.676;22.650;2023-03-01T02:22:24;-2.75;79.14
72126;SHT31;59999;51.676;22.650;2023-03-01T02:30:21;-2.87;79.43
72126;SHT31;59999;51.676;22.650;2023-03-01T02:32:48;-2.92;79.80
72126;SHT31;59999;51.676;22.650;2023-03-01T02:35:16;-2.95;79.83
72126;SHT31;59999;51.676;22.650;2023-03-01T02:37:43;-3.05;79.95
72126;SHT31;59999;51.676;22.650;2023-03-01T02:40:17;-3.12;80.23
72126;SHT31;59999;51.676;22.650;2023-03-01T02:42:53;-3.15;80.47
72126;SHT31;59999;51.676;22.650;2023-03-01T02:45:20;-3.17;80.78
72126;SHT31;59999;51.676;22.650;2023-03-01T02:47:46;-3.20;80.98
72126;SHT31;59999;51.676;22.650;2023-03-01T02:50:34;-3.17;81.19
72126;SHT31;59999;51.676;22.650;2023-03-01T02:53:09;-3.17;81.05
72126;SHT31;59999;51.676;22.650;2023-03-01T02:55:36;-3.16;81.00
72126;SHT31;59999;51.676;22.650;2023-03-01T02:58:03;-3.16;81.05
72126;SHT31;59999;51.676;22.650;2023-03-01T03:00:38;-3.16;81.44
72126;SHT31;59999;51.676;22.650;2023-03-01T03:03:06;-3.17;81.23
72126;SHT31;59999;51.676;22.650;2023-03-01T03:05:33;-3.12;80.97
72126;SHT31;59999;51.676;22.650;2023-03-01T03:08:01;-3.09;80.93
72126;SHT31;59999;51.676;22.650;2023-03-01T03:10:30;-3.09;80.79
72126;SHT31;59999;51.676;22.650;2023-03-01T03:13:01;-3.03;80.69
72126;SHT31;59999;51.676;22.650;2023-03-01T03:15:29;-3.02;80.67
72126;SHT31;59999;51.676;22.650;2023-03-01T03:17:58;-2.98;80.25
72126;SHT31;59999;51.676;22.650;2023-03-01T03:20:27;-2.95;80.17
72126;SHT31;59999;51.676;22.650;2023-03-01T03:22:55;-2.96;80.04
72126;SHT31;59999;51.676;22.650;2023-03-01T03:25:22;-2.98;80.34
72126;SHT31;59999;51.676;22.650;2023-03-01T03:27:49;-2.95;80.25
72126;SHT31;59999;51.676;22.650;2023-03-01T03:30:17;-2.96;80.26
72126;SHT31;59999;51.676;22.650;2023-03-01T03:32:44;-2.99;80.37
72126;SHT31;59999;51.676;22.650;2023-03-01T03:35:32;-3.01;80.55
72126;SHT31;59999;51.676;22.650;2023-03-01T03:38:00;-2.98;80.58
72126;SHT31;59999;51.676;22.650;2023-03-01T03:40:35;-2.98;80.72
72126;SHT31;59999;51.676;22.650;2023-03-01T03:43:10;-2.98;80.84
72126;SHT31;59999;51.676;22.650;2023-03-01T03:45:36;-2.93;81.12
72126;SHT31;59999;51.676;22.650;2023-03-01T03:48:04;-3.01;81.19
72126;SHT31;59999;51.676;22.650;2023-03-01T03:50:32;-3.01;81.30
72126;SHT31;59999;51.676;22.650;2023-03-01T03:53:00;-3.02;81.61
72126;SHT31;59999;51.676;22.650;2023-03-01T03:55:27;-3.05;81.57
72126;SHT31;59999;51.676;22.650;2023-03-01T03:57:59;-3.08;81.76
72126;SHT31;59999;51.676;22.650;2023-03-01T04:00:28;-3.08;81.67
72126;SHT31;59999;51.676;22.650;2023-03-01T04:02:54;-3.05;81.61
72126;SHT31;59999;51.676;22.650;2023-03-01T04:05:22;-3.08;81.72
72126;SHT31;59999;51.676;22.650;2023-03-01T04:07:48;-3.08;81.82
72126;SHT31;59999;51.676;22.650;2023-03-01T04:10:16;-3.11;81.89
72126;SHT31;59999;51.676;22.650;2023-03-01T04:12:43;-3.12;82.07
72126;SHT31;59999;51.676;22.650;2023-03-01T04:15:10;-3.16;82.29
72126;SHT31;59999;51.676;22.650;2023-03-01T04:17:44;-3.13;82.34
72126;SHT31;59999;51.676;22.650;2023-03-01T04:20:12;-3.17;82.54
72126;SHT31;59999;51.676;22.650;2023-03-01T04:22:39;-3.13;82.37
72126;SHT31;59999;51.676;22.650;2023-03-01T04:25:06;-3.16;82.53
72126;SHT31;59999;51.676;22.650;2023-03-01T04:27:36;-3.19;82.81
72126;SHT31;59999;51.676;22.650;2023-03-01T04:30:03;-3.20;82.91
72126;SHT31;59999;51.676;22.650;2023-03-01T04:32:29;-3.20;83.04
72126;SHT31;59999;51.676;22.650;2023-03-01T04:34:55;-3.22;83.22
72126;SHT31;59999;51.676;22.650;2023-03-01T04:37:21;-3.22;83.26
72126;SHT31;59999;51.676;22.650;2023-03-01T04:39:47;-3.24;83.53
72126;SHT31;59999;51.676;22.650;2023-03-01T04:42:16;-3.23;83.52
72126;SHT31;59999;51.676;22.650;2023-03-01T04:44:43;-3.26;83.47
72126;SHT31;59999;51.676;22.650;2023-03-01T04:47:09;-3.22;83.46
72126;SHT31;59999;51.676;22.650;2023-03-01T04:49:35;-3.23;83.54
72126;SHT31;59999;51.676;22.650;2023-03-01T04:52:02;-3.23;83.61
72126;SHT31;59999;51.676;22.650;2023-03-01T04:54:29;-3.28;83.75
72126;SHT31;59999;51.676;22.650;2023-03-01T04:56:55;-3.29;83.93
72126;SHT31;59999;51.676;22.650;2023-03-01T04:59:21;-3.30;83.92
72126;SHT31;59999;51.676;22.650;2023-03-01T05:01:52;-3.29;84.11
72126;SHT31;59999;51.676;22.650;2023-03-01T05:04:18;-3.29;84.15
72126;SHT31;59999;51.676;22.650;2023-03-01T05:06:44;-3.33;84.13
72126;SHT31;59999;51.676;22.650;2023-03-01T05:09:10;-3.35;84.19
72126;SHT31;59999;51.676;22.650;2023-03-01T05:11:37;-3.32;84.20
72126;SHT31;59999;51.676;22.650;2023-03-01T05:14:04;-3.35;84.35
72126;SHT31;59999;51.676;22.650;2023-03-01T05:16:30;-3.38;84.33
72126;SHT31;59999;51.676;22.650;2023-03-01T05:18:58;-3.36;84.41
72126;SHT31;59999;51.676;22.650;2023-03-01T05:21:25;-3.38;84.39
72126;SHT31;59999;51.676;22.650;2023-03-01T05:23:51;-3.35;84.34
72126;SHT31;59999;51.676;22.650;2023-03-01T05:26:19;-3.32;84.34
72126;SHT31;59999;51.676;22.650;2023-03-01T05:28:47;-3.30;84.19
72126;SHT31;59999;51.676;22.650;2023-03-01T05:31:13;-3.29;84.21
72126;SHT31;59999;51.676;22.650;2023-03-01T05:33:40;-3.26;83.89
72126;SHT31;59999;51.676;22.650;2023-03-01T05:36:07;-3.28;83.95
72126;SHT31;59999;51.676;22.650;2023-03-01T05:38:35;-3.24;83.89
72126;SHT31;59999;51.676;22.650;2023-03-01T05:41:01;-3.22;83.97
72126;SHT31;59999;51.676;22.650;2023-03-01T05:43:30;-3.20;84.01
72126;SHT31;59999;51.676;22.650;2023-03-01T05:45:57;-3.17;83.90
72126;SHT31;59999;51.676;22.650;2023-03-01T05:48:23;-3.15;83.92
72126;SHT31;59999;51.676;22.650;2023-03-01T05:50:50;-3.12;83.85
72126;SHT31;59999;51.676;22.650;2023-03-01T05:53:18;-3.06;83.84
72126;SHT31;59999;51.676;22.650;2023-03-01T05:55:46;-3.03;83.76
72126;SHT31;59999;51.676;22.650;2023-03-01T05:58:16;-2.95;83.57
72126;SHT31;59999;51.676;22.650;2023-03-01T06:00:43;-2.91;83.41
72126;SHT31;59999;51.676;22.650;2023-03-01T06:03:14;-2.84;83.19
72126;SHT31;59999;51.676;22.650;2023-03-01T06:05:40;-2.80;82.92
72126;SHT31;59999;51.676;22.650;2023-03-01T06:08:07;-2.72;82.95
72126;SHT31;59999;51.676;22.650;2023-03-01T06:10:34;-2.68;82.53
72126;SHT31;59999;51.676;22.650;2023-03-01T06:13:01;-2.64;82.33
72126;SHT31;59999;51.676;22.650;2023-03-01T06:15:27;-2.60;82.29
72126;SHT31;59999;51.676;22.650;2023-03-01T06:17:54;-2.53;81.97
72126;SHT31;59999;51.676;22.650;2023-03-01T06:20:24;-2.46;82.10
72126;SHT31;59999;51.676;22.650;2023-03-01T06:22:51;-2.40;81.61
72126;SHT31;59999;51.676;22.650;2023-03-01T06:25:19;-2.36;81.50
72126;SHT31;59999;51.676;22.650;2023-03-01T06:27:46;-2.34;81.32
72126;SHT31;59999;51.676;22.650;2023-03-01T06:30:15;-2.28;81.29
72126;SHT31;59999;51.676;22.650;2023-03-01T06:32:41;-2.20;81.19
72126;SHT31;59999;51.676;22.650;2023-03-01T06:35:11;-2.13;81.44
72126;SHT31;59999;51.676;22.650;2023-03-01T06:37:37;-2.05;81.23
72126;SHT31;59999;51.676;22.650;2023-03-01T06:40:04;-1.98;81.11
72126;SHT31;59999;51.676;22.650;2023-03-01T06:42:39;-1.91;80.91
72126;SHT31;59999;51.676;22.650;2023-03-01T06:45:06;-1.82;80.88
72126;SHT31;59999;51.676;22.650;2023-03-01T06:47:33;-1.78;79.97
72126;SHT31;59999;51.676;22.650;2023-03-01T06:50:00;-1.75;80.00
72126;SHT31;59999;51.676;22.650;2023-03-01T06:52:26;-1.70;80.23
72126;SHT31;59999;51.676;22.650;2023-03-01T06:54:52;-1.67;80.11
72126;SHT31;59999;51.676;22.650;2023-03-01T06:57:18;-1.64;80.00
72126;SHT31;59999;51.676;22.650;2023-03-01T06:59:44;-1.55;80.09
72126;SHT31;59999;51.676;22.650;2023-03-01T07:02:13;-1.47;79.78
72126;SHT31;59999;51.676;22.650;2023-03-01T07:04:41;-1.37;80.09
72126;SHT31;59999;51.676;22.650;2023-03-01T07:07:08;-1.29;79.47
72126;SHT31;59999;51.676;22.650;2023-03-01T07:09:34;-1.19;79.47
72126;SHT31;59999;51.676;22.650;2023-03-01T07:12:00;-1.06;79.32
72126;SHT31;59999;51.676;22.650;2023-03-01T07:14:26;-0.93;79.29
72126;SHT31;59999;51.676;22.650;2023-03-01T07:16:53;-0.82;78.88
72126;SHT31;59999;51.676;22.650;2023-03-01T07:19:20;-0.66;78.86
72126;SHT31;59999;51.676;22.650;2023-03-01T07:21:47;-0.61;77.70
72126;SHT31;59999;51.676;22.650;2023-03-01T07:24:13;-0.58;76.82
72126;SHT31;59999;51.676;22.650;2023-03-01T07:26:39;-0.48;77.06
72126;SHT31;59999;51.676;22.650;2023-03-01T07:29:06;-0.38;76.55
72126;SHT31;59999;51.676;22.650;2023-03-01T07:31:32;-0.28;76.81
72126;SHT31;59999;51.676;22.650;2023-03-01T07:33:58;-0.18;76.15
72126;SHT31;59999;51.676;22.650;2023-03-01T07:36:24;-0.17;75.67
72126;SHT31;59999;51.676;22.650;2023-03-01T07:38:51;-0.10;75.56
72126;SHT31;59999;51.676;22.650;2023-03-01T07:41:17;-0.07;75.09
72126;SHT31;59999;51.676;22.650;2023-03-01T07:43:43;0.01;75.65
72126;SHT31;59999;51.676;22.650;2023-03-01T07:46:09;0.05;74.40
72126;SHT31;59999;51.676;22.650;2023-03-01T07:48:35;0.08;74.05
72126;SHT31;59999;51.676;22.650;2023-03-01T07:51:03;0.13;74.17
72126;SHT31;59999;51.676;22.650;2023-03-01T07:53:29;0.18;74.66
72126;SHT31;59999;51.676;22.650;2023-03-01T07:56:11;0.26;74.50
72126;SHT31;59999;51.676;22.650;2023-03-01T07:58:39;0.28;73.94
72126;SHT31;59999;51.676;22.650;2023-03-01T08:01:08;0.34;74.16
72126;SHT31;59999;51.676;22.650;2023-03-01T08:03:35;0.40;74.45
72126;SHT31;59999;51.676;22.650;2023-03-01T08:06:07;0.44;73.87
72126;SHT31;59999;51.676;22.650;2023-03-01T08:08:34;0.56;73.93
72126;SHT31;59999;51.676;22.650;2023-03-01T08:11:03;0.66;72.90
72126;SHT31;59999;51.676;22.650;2023-03-01T08:13:29;0.72;72.84
72126;SHT31;59999;51.676;22.650;2023-03-01T08:16:04;0.84;73.25
72126;SHT31;59999;51.676;22.650;2023-03-01T08:18:31;0.97;73.37
72126;SHT31;59999;51.676;22.650;2023-03-01T08:21:02;1.16;72.72
72126;SHT31;59999;51.676;22.650;2023-03-01T08:23:28;1.31;72.20
72126;SHT31;59999;51.676;22.650;2023-03-01T08:26:03;1.48;71.29
72126;SHT31;59999;51.676;22.650;2023-03-01T08:28:29;1.54;70.32
72126;SHT31;59999;51.676;22.650;2023-03-01T08:30:55;1.61;69.97
72126;SHT31;59999;51.676;22.650;2023-03-01T08:33:21;1.68;70.02
72126;SHT31;59999;51.676;22.650;2023-03-01T08:35:47;1.78;69.93
72126;SHT31;59999;51.676;22.650;2023-03-01T08:38:12;1.89;69.89
72126;SHT31;59999;51.676;22.650;2023-03-01T08:40:39;1.97;69.89
72126;SHT31;59999;51.676;22.650;2023-03-01T08:43:04;2.06;69.40
72126;SHT31;59999;51.676;22.650;2023-03-01T08:45:30;2.20;69.11
72126;SHT31;59999;51.676;22.650;2023-03-01T08:47:56;2.21;68.81
72126;SHT31;59999;51.676;22.650;2023-03-01T08:50:23;2.34;68.60
72126;SHT31;59999;51.676;22.650;2023-03-01T08:52:50;2.47;67.99
72126;SHT31;59999;51.676;22.650;2023-03-01T08:55:16;2.51;67.75
72126;SHT31;59999;51.676;22.650;2023-03-01T08:57:43;2.44;66.91
72126;SHT31;59999;51.676;22.650;2023-03-01T09:00:10;2.47;66.87
72126;SHT31;59999;51.676;22.650;2023-03-01T09:02:36;2.55;67.74
72126;SHT31;59999;51.676;22.650;2023-03-01T09:05:03;2.68;67.57
72126;SHT31;59999;51.676;22.650;2023-03-01T09:07:29;2.86;68.09
72126;SHT31;59999;51.676;22.650;2023-03-01T09:09:55;2.88;67.43
72126;SHT31;59999;51.676;22.650;2023-03-01T09:12:21;2.89;66.35
72126;SHT31;59999;51.676;22.650;2023-03-01T09:14:47;2.89;67.61
72126;SHT31;59999;51.676;22.650;2023-03-01T09:17:13;2.88;66.72
72126;SHT31;59999;51.676;22.650;2023-03-01T09:19:39;2.84;67.11
72126;SHT31;59999;51.676;22.650;2023-03-01T09:22:05;2.85;67.59
72126;SHT31;59999;51.676;22.650;2023-03-01T09:24:31;2.84;68.02
72126;SHT31;59999;51.676;22.650;2023-03-01T09:26:57;2.93;67.61
72126;SHT31;59999;51.676;22.650;2023-03-01T09:29:23;2.96;66.92
72126;SHT31;59999;51.676;22.650;2023-03-01T09:31:49;3.00;66.99
72126;SHT31;59999;51.676;22.650;2023-03-01T09:34:15;3.03;67.10
72126;SHT31;59999;51.676;22.650;2023-03-01T09:36:44;3.13;67.36
72126;SHT31;59999;51.676;22.650;2023-03-01T09:39:11;3.15;67.54
72126;SHT31;59999;51.676;22.650;2023-03-01T09:42:02;3.15;68.02
72126;SHT31;59999;51.676;22.650;2023-03-01T09:47:26;3.30;67.57
72126;SHT31;59999;51.676;22.650;2023-03-01T09:50:09;3.36;67.06
72126;SHT31;59999;51.676;22.650;2023-03-01T09:55:44;3.54;67.60
72126;SHT31;59999;51.676;22.650;2023-03-01T10:00:42;3.75;68.12
72126;SHT31;59999;51.676;22.650;2023-03-01T10:08:42;3.85;71.73
72126;SHT31;59999;51.676;22.650;2023-03-01T10:11:28;3.85;72.69
72126;SHT31;59999;51.676;22.650;2023-03-01T10:14:05;3.99;73.12
72126;SHT31;59999;51.676;22.650;2023-03-01T10:19:33;4.17;72.29
72126;SHT31;59999;51.676;22.650;2023-03-01T10:22:28;4.26;71.92
72126;SHT31;59999;51.676;22.650;2023-03-01T10:24:58;4.36;71.87
72126;SHT31;59999;51.676;22.650;2023-03-01T10:27:40;4.52;71.32
72126;SHT31;59999;51.676;22.650;2023-03-01T10:30:37;4.65;72.03
72126;SHT31;59999;51.676;22.650;2023-03-01T10:33:18;4.80;71.49
72126;SHT31;59999;51.676;22.650;2023-03-01T10:35:44;4.80;70.85
72126;SHT31;59999;51.676;22.650;2023-03-01T10:38:15;4.81;70.38
72126;SHT31;59999;51.676;22.650;2023-03-01T10:40:56;4.89;71.41
72126;SHT31;59999;51.676;22.650;2023-03-01T10:43:24;5.04;70.62
72126;SHT31;59999;51.676;22.650;2023-03-01T10:45:51;5.04;70.21
72126;SHT31;59999;51.676;22.650;2023-03-01T10:48:23;5.04;70.46
72126;SHT31;59999;51.676;22.650;2023-03-01T10:56:07;5.02;69.77
72126;SHT31;59999;51.676;22.650;2023-03-01T10:58:35;5.11;70.28
72126;SHT31;59999;51.676;22.650;2023-03-01T11:01:04;5.02;69.62
72126;SHT31;59999;51.676;22.650;2023-03-01T11:03:38;5.01;69.90
72126;SHT31;59999;51.676;22.650;2023-03-01T11:08:44;5.04;70.53
72126;SHT31;59999;51.676;22.650;2023-03-01T11:16:28;5.35;68.55
72126;SHT31;59999;51.676;22.650;2023-03-01T11:21:33;5.38;68.25
72126;SHT31;59999;51.676;22.650;2023-03-01T11:24:01;5.36;69.14
72126;SHT31;59999;51.676;22.650;2023-03-01T11:26:28;5.39;69.29
72126;SHT31;59999;51.676;22.650;2023-03-01T11:29:00;5.61;69.23
72126;SHT31;59999;51.676;22.650;2023-03-01T11:31:28;5.73;67.69
72126;SHT31;59999;51.676;22.650;2023-03-01T11:34:00;5.78;67.50
72126;SHT31;59999;51.676;22.650;2023-03-01T11:39:24;6.14;67.23
72126;SHT31;59999;51.676;22.650;2023-03-01T11:42:02;6.32;66.94
72126;SHT31;59999;51.676;22.650;2023-03-01T11:44:33;6.33;64.84
72126;SHT31;59999;51.676;22.650;2023-03-01T11:47:16;6.32;64.71
72126;SHT31;59999;51.676;22.650;2023-03-01T11:58:29;6.40;65.49
72126;SHT31;59999;51.676;22.650;2023-03-01T12:06:52;6.63;64.43
72126;SHT31;59999;51.676;22.650;2023-03-01T12:09:48;6.83;64.54
72126;SHT31;59999;51.676;22.650;2023-03-01T12:18:20;7.21;63.90
72126;SHT31;59999;51.676;22.650;2023-03-01T12:21:21;7.29;65.15
72126;SHT31;59999;51.676;22.650;2023-03-01T12:26:49;7.19;63.83
72126;SHT31;59999;51.676;22.650;2023-03-01T12:29:41;7.07;63.68
72126;SHT31;59999;51.676;22.650;2023-03-01T12:40:24;6.81;65.45
72126;SHT31;59999;51.676;22.650;2023-03-01T12:51:37;6.93;65.32
72126;SHT31;59999;51.676;22.650;2023-03-01T12:54:30;6.87;65.32
72126;SHT31;59999;51.676;22.650;2023-03-01T12:57:27;6.75;65.29
72126;SHT31;59999;51.676;22.650;2023-03-01T13:05:42;6.77;66.07
72126;SHT31;59999;51.676;22.650;2023-03-01T13:08:20;6.66;66.02
72126;SHT31;59999;51.676;22.650;2023-03-01T13:11:03;6.66;66.23
72126;SHT31;59999;51.676;22.650;2023-03-01T13:13:30;6.63;66.56
72126;SHT31;59999;51.676;22.650;2023-03-01T13:15:57;6.69;66.82
72126;SHT31;59999;51.676;22.650;2023-03-01T13:21:01;6.79;66.80
72126;SHT31;59999;51.676;22.650;2023-03-01T13:23:31;6.84;66.19
72126;SHT31;59999;51.676;22.650;2023-03-01T13:26:04;6.72;66.20
72126;SHT31;59999;51.676;22.650;2023-03-01T13:33:47;6.48;67.63
72126;SHT31;59999;51.676;22.650;2023-03-01T13:38:57;6.32;67.43
72126;SHT31;59999;51.676;22.650;2023-03-01T13:41:50;6.17;67.59
72126;SHT31;59999;51.676;22.650;2023-03-01T13:47:15;5.91;68.72
72126;SHT31;59999;51.676;22.650;2023-03-01T13:55:01;5.90;69.27
72126;SHT31;59999;51.676;22.650;2023-03-01T13:57:37;5.90;69.42
72126;SHT31;59999;51.676;22.650;2023-03-01T14:00:07;5.93;69.45
72126;SHT31;59999;51.676;22.650;2023-03-01T14:02:33;5.98;69.13
72126;SHT31;59999;51.676;22.650;2023-03-01T14:05:01;6.04;69.27
72126;SHT31;59999;51.676;22.650;2023-03-01T14:07:28;6.15;69.23
72126;SHT31;59999;51.676;22.650;2023-03-01T14:10:00;6.15;68.78
72126;SHT31;59999;51.676;22.650;2023-03-01T14:20:42;5.98;68.94
72126;SHT31;59999;51.676;22.650;2023-03-01T14:23:20;5.91;69.44
72126;SHT31;59999;51.676;22.650;2023-03-01T14:25:48;5.87;69.23
72126;SHT31;59999;51.676;22.650;2023-03-01T14:30:54;5.73;69.92
72126;SHT31;59999;51.676;22.650;2023-03-01T14:33:44;5.71;69.89
72126;SHT31;59999;51.676;22.650;2023-03-01T14:36:11;5.63;70.14
72126;SHT31;59999;51.676;22.650;2023-03-01T14:38:46;5.60;70.41
72126;SHT31;59999;51.676;22.650;2023-03-01T14:41:16;5.53;70.65
72126;SHT31;59999;51.676;22.650;2023-03-01T14:43:46;5.53;70.88
72126;SHT31;59999;51.676;22.650;2023-03-01T14:46:40;5.53;70.83
72126;SHT31;59999;51.676;22.650;2023-03-01T14:51:40;5.47;70.45
72126;SHT31;59999;51.676;22.650;2023-03-01T14:54:29;5.40;71.00
72126;SHT31;59999;51.676;22.650;2023-03-01T14:56:59;5.40;71.27
72126;SHT31;59999;51.676;22.650;2023-03-01T14:59:25;5.38;71.60
72126;SHT31;59999;51.676;22.650;2023-03-01T15:01:54;5.39;71.87
72126;SHT31;59999;51.676;22.650;2023-03-01T15:04:22;5.35;72.23
72126;SHT31;59999;51.676;22.650;2023-03-01T15:06:53;5.19;72.64
72126;SHT31;59999;51.676;22.650;2023-03-01T15:09:20;5.07;73.55
72126;SHT31;59999;51.676;22.650;2023-03-01T15:11:48;4.92;74.15
72126;SHT31;59999;51.676;22.650;2023-03-01T15:17:36;4.56;74.90
72126;SHT31;59999;51.676;22.650;2023-03-01T15:20:06;4.39;75.07
72126;SHT31;59999;51.676;22.650;2023-03-01T15:22:43;4.32;75.24
72126;SHT31;59999;51.676;22.650;2023-03-01T15:25:18;4.24;75.38
72126;SHT31;59999;51.676;22.650;2023-03-01T15:27:47;4.20;75.53
72126;SHT31;59999;51.676;22.650;2023-03-01T15:30:20;4.12;75.62
72126;SHT31;59999;51.676;22.650;2023-03-01T15:32:46;4.10;75.81
72126;SHT31;59999;51.676;22.650;2023-03-01T15:35:43;4.01;75.86
72126;SHT31;59999;51.676;22.650;2023-03-01T15:41:32;3.88;76.21
72126;SHT31;59999;51.676;22.650;2023-03-01T15:44:26;3.79;76.10
72126;SHT31;59999;51.676;22.650;2023-03-01T15:46:53;3.75;76.06
72126;SHT31;59999;51.676;22.650;2023-03-01T15:49:42;3.71;76.22
72126;SHT31;59999;51.676;22.650;2023-03-01T15:52:17;3.67;76.10
72126;SHT31;59999;51.676;22.650;2023-03-01T15:54:47;3.60;76.26
72126;SHT31;59999;51.676;22.650;2023-03-01T15:57:13;3.61;76.47
72126;SHT31;59999;51.676;22.650;2023-03-01T15:59:41;3.57;76.41
72126;SHT31;59999;51.676;22.650;2023-03-01T16:02:11;3.53;76.76
72126;SHT31;59999;51.676;22.650;2023-03-01T16:04:39;3.51;77.11
72126;SHT31;59999;51.676;22.650;2023-03-01T16:07:04;3.50;77.37
72126;SHT31;59999;51.676;22.650;2023-03-01T16:09:31;3.51;77.50
72126;SHT31;59999;51.676;22.650;2023-03-01T16:11:57;3.50;77.38
72126;SHT31;59999;51.676;22.650;2023-03-01T16:14:24;3.48;77.57
72126;SHT31;59999;51.676;22.650;2023-03-01T16:16:49;3.50;77.63
72126;SHT31;59999;51.676;22.650;2023-03-01T16:19:16;3.50;77.42
72126;SHT31;59999;51.676;22.650;2023-03-01T16:21:42;3.53;77.23
72126;SHT31;59999;51.676;22.650;2023-03-01T16:24:13;3.51;77.28
72126;SHT31;59999;51.676;22.650;2023-03-01T16:26:38;3.51;77.27
72126;SHT31;59999;51.676;22.650;2023-03-01T16:29:05;3.54;77.00
72126;SHT31;59999;51.676;22.650;2023-03-01T16:31:31;3.51;77.30
72126;SHT31;59999;51.676;22.650;2023-03-01T16:33:59;3.48;77.30
72126;SHT31;59999;51.676;22.650;2023-03-01T16:36:26;3.41;77.61
72126;SHT31;59999;51.676;22.650;2023-03-01T16:38:55;3.37;77.99
72126;SHT31;59999;51.676;22.650;2023-03-01T16:41:23;3.28;78.30
72126;SHT31;59999;51.676;22.650;2023-03-01T16:43:50;3.27;78.26
72126;SHT31;59999;51.676;22.650;2023-03-01T16:46:20;3.23;78.16
72126;SHT31;59999;51.676;22.650;2023-03-01T16:48:47;3.20;78.45
72126;SHT31;59999;51.676;22.650;2023-03-01T16:51:14;3.15;78.70
72126;SHT31;59999;51.676;22.650;2023-03-01T16:53:40;3.07;79.00
72126;SHT31;59999;51.676;22.650;2023-03-01T16:56:08;2.97;79.14
72126;SHT31;59999;51.676;22.650;2023-03-01T16:58:36;2.95;79.14
72126;SHT31;59999;51.676;22.650;2023-03-01T17:01:14;2.89;79.10
72126;SHT31;59999;51.676;22.650;2023-03-01T17:03:42;2.84;79.10
72126;SHT31;59999;51.676;22.650;2023-03-01T17:06:11;2.82;79.06
72126;SHT31;59999;51.676;22.650;2023-03-01T17:08:38;2.75;78.96
72126;SHT31;59999;51.676;22.650;2023-03-01T17:11:08;2.72;79.18
72126;SHT31;59999;51.676;22.650;2023-03-01T17:13:35;2.62;79.22
72126;SHT31;59999;51.676;22.650;2023-03-01T17:16:06;2.58;79.47
72126;SHT31;59999;51.676;22.650;2023-03-01T17:18:33;2.49;79.53
72126;SHT31;59999;51.676;22.650;2023-03-01T17:21:00;2.48;79.59
72126;SHT31;59999;51.676;22.650;2023-03-01T17:23:28;2.44;79.09
72126;SHT31;59999;51.676;22.650;2023-03-01T17:25:54;2.37;78.92
72126;SHT31;59999;51.676;22.650;2023-03-01T17:28:23;2.26;78.85
72126;SHT31;59999;51.676;22.650;2023-03-01T17:30:49;2.13;79.30
72126;SHT31;59999;51.676;22.650;2023-03-01T17:33:17;2.05;79.69
72126;SHT31;59999;51.676;22.650;2023-03-01T17:35:43;1.96;79.93
72126;SHT31;59999;51.676;22.650;2023-03-01T17:38:13;1.89;80.23
72126;SHT31;59999;51.676;22.650;2023-03-01T17:40:42;1.83;80.50
72126;SHT31;59999;51.676;22.650;2023-03-01T17:43:11;1.79;80.34
72126;SHT31;59999;51.676;22.650;2023-03-01T17:45:38;1.70;80.41